VOE3930 LEAS-LPPR
Flight info
| Callsign | VOE3930 |
|---|---|
| Flight time | 0h 38m |
| Altitude | 23000 |
| Route | KUVAN N872 RALUS DCT BELDU DCT INKIT |
| Aircraft | A320/M-SDE3FGHIRWY/LB1 |
Departure
| Time | 2026-05-01 09:52 |
|---|---|
| Airport | Asturias Airport (LEAS) |
Arrival
| Time | 2026-05-01 10:31 |
|---|---|
| Airport | Francisco de Sá Carneiro Airport (LPPR) |
| Time | Latitude | Longitude | Altitude | Speed | Heading |
|---|---|---|---|---|---|
| 2026-05-01 09:17 | 43.56060 | -6.03212 | 428 ft | 188 kts | 122° |
| 2026-05-01 09:18 | 43.55894 | -6.02750 | 426 ft | 0 kts | 204° |
| 2026-05-01 09:18 | 43.55918 | -6.02774 | 425 ft | 0 kts | 18° |
| 2026-05-01 09:49 | 43.55935 | -6.02774 | 417 ft | 8 kts | 348° |
| 2026-05-01 09:49 | 43.55975 | -6.02878 | 424 ft | 16 kts | 294° |
| 2026-05-01 09:49 | 43.56045 | -6.02850 | 421 ft | 16 kts | 101° |
| 2026-05-01 09:49 | 43.56008 | -6.02689 | 413 ft | 19 kts | 108° |
| 2026-05-01 09:50 | 43.55968 | -6.02520 | 423 ft | 18 kts | 107° |
| 2026-05-01 09:50 | 43.55947 | -6.02377 | 425 ft | 13 kts | 81° |
| 2026-05-01 09:50 | 43.55980 | -6.02271 | 416 ft | 11 kts | 64° |
| 2026-05-01 09:50 | 43.56020 | -6.02202 | 418 ft | 9 kts | 24° |
| 2026-05-01 09:51 | 43.56071 | -6.02239 | 417 ft | 2 kts | 286° |
| 2026-05-01 09:51 | 43.56075 | -6.02261 | 421 ft | 21 kts | 286° |
| 2026-05-01 09:51 | 43.56207 | -6.02825 | 430 ft | 97 kts | 288° |
| 2026-05-01 09:51 | 43.56481 | -6.03980 | 426 ft | 154 kts | 288° |
| 2026-05-01 09:52 | 43.56835 | -6.05502 | 842 ft | 174 kts | 288° |
| 2026-05-01 09:52 | 43.57210 | -6.07095 | 1626 ft | 173 kts | 288° |
| 2026-05-01 09:52 | 43.57583 | -6.08671 | 2374 ft | 176 kts | 288° |
| 2026-05-01 09:52 | 43.57984 | -6.10359 | 2752 ft | 196 kts | 288° |
| 2026-05-01 09:53 | 43.58432 | -6.12249 | 3067 ft | 217 kts | 288° |
| 2026-05-01 09:53 | 43.58907 | -6.14261 | 3790 ft | 223 kts | 288° |
| 2026-05-01 09:53 | 43.59226 | -6.16347 | 4591 ft | 225 kts | 264° |
| 2026-05-01 09:53 | 43.58622 | -6.18289 | 5370 ft | 224 kts | 222° |
| 2026-05-01 09:54 | 43.57303 | -6.19400 | 6180 ft | 224 kts | 201° |
| 2026-05-01 09:54 | 43.55825 | -6.20076 | 7010 ft | 225 kts | 195° |
| 2026-05-01 09:54 | 43.54818 | -6.20454 | 7555 ft | 226 kts | 194° |
| 2026-05-01 09:54 | 43.53289 | -6.21013 | 8351 ft | 229 kts | 194° |
| 2026-05-01 09:55 | 43.51728 | -6.21605 | 9173 ft | 230 kts | 194° |
| 2026-05-01 09:55 | 43.50205 | -6.22215 | 9994 ft | 233 kts | 195° |
| 2026-05-01 09:55 | 43.48652 | -6.22861 | 10745 ft | 235 kts | 196° |
| 2026-05-01 09:55 | 43.47049 | -6.23520 | 11519 ft | 238 kts | 192° |
| 2026-05-01 09:56 | 43.45384 | -6.23913 | 11910 ft | 257 kts | 189° |
| 2026-05-01 09:56 | 43.43504 | -6.24333 | 12191 ft | 282 kts | 190° |
| 2026-05-01 09:56 | 43.41518 | -6.24780 | 12435 ft | 305 kts | 190° |
| 2026-05-01 09:56 | 43.39343 | -6.25274 | 12667 ft | 329 kts | 190° |
| 2026-05-01 09:57 | 43.37014 | -6.25805 | 12885 ft | 349 kts | 190° |
| 2026-05-01 09:57 | 43.34585 | -6.26359 | 13456 ft | 357 kts | 190° |
| 2026-05-01 09:57 | 43.32122 | -6.26920 | 14142 ft | 361 kts | 190° |
| 2026-05-01 09:57 | 43.29638 | -6.27487 | 14804 ft | 364 kts | 190° |
| 2026-05-01 09:58 | 43.27127 | -6.28056 | 15468 ft | 367 kts | 190° |
| 2026-05-01 09:58 | 43.24606 | -6.28627 | 16117 ft | 369 kts | 190° |
| 2026-05-01 09:58 | 43.22062 | -6.29205 | 16779 ft | 371 kts | 190° |
| 2026-05-01 09:58 | 43.19502 | -6.29789 | 17400 ft | 374 kts | 190° |
| 2026-05-01 09:59 | 43.16928 | -6.30376 | 18026 ft | 376 kts | 190° |
| 2026-05-01 09:59 | 43.14340 | -6.30963 | 18614 ft | 379 kts | 190° |
| 2026-05-01 09:59 | 43.11754 | -6.31660 | 19160 ft | 381 kts | 196° |
| 2026-05-01 09:59 | 43.09269 | -6.32967 | 19675 ft | 383 kts | 207° |
| 2026-05-01 10:00 | 43.06898 | -6.34657 | 20170 ft | 385 kts | 207° |
| 2026-05-01 10:00 | 43.04520 | -6.36353 | 20657 ft | 388 kts | 207° |
| 2026-05-01 10:00 | 43.02117 | -6.38058 | 21156 ft | 390 kts | 207° |
| 2026-05-01 10:00 | 42.99693 | -6.39772 | 21643 ft | 393 kts | 207° |
| 2026-05-01 10:01 | 42.97258 | -6.41492 | 22122 ft | 396 kts | 207° |
| 2026-05-01 10:01 | 42.94800 | -6.43226 | 22579 ft | 399 kts | 207° |
| 2026-05-01 10:01 | 42.92321 | -6.44974 | 23020 ft | 402 kts | 207° |
| 2026-05-01 10:01 | 42.89836 | -6.46725 | 23154 ft | 407 kts | 207° |
| 2026-05-01 10:02 | 42.87286 | -6.48522 | 23153 ft | 416 kts | 207° |
| 2026-05-01 10:02 | 42.84712 | -6.50334 | 23154 ft | 418 kts | 207° |
| 2026-05-01 10:02 | 42.82116 | -6.52157 | 23137 ft | 419 kts | 207° |
| 2026-05-01 10:02 | 42.79521 | -6.53973 | 23150 ft | 419 kts | 207° |
| 2026-05-01 10:03 | 42.76931 | -6.55769 | 23150 ft | 419 kts | 207° |
| 2026-05-01 10:03 | 42.74317 | -6.57561 | 23150 ft | 419 kts | 207° |
| 2026-05-01 10:03 | 42.71710 | -6.59342 | 23149 ft | 419 kts | 207° |
| 2026-05-01 10:03 | 42.69108 | -6.61123 | 23151 ft | 419 kts | 207° |
| 2026-05-01 10:04 | 42.66501 | -6.62906 | 23148 ft | 419 kts | 207° |
| 2026-05-01 10:04 | 42.63898 | -6.64682 | 23147 ft | 419 kts | 207° |
| 2026-05-01 10:04 | 42.61286 | -6.66468 | 23146 ft | 419 kts | 207° |
| 2026-05-01 10:04 | 42.58686 | -6.68251 | 23144 ft | 419 kts | 207° |
| 2026-05-01 10:05 | 42.56085 | -6.70031 | 23145 ft | 419 kts | 207° |
| 2026-05-01 10:05 | 42.53480 | -6.71811 | 23147 ft | 419 kts | 207° |
| 2026-05-01 10:05 | 42.50876 | -6.73587 | 23142 ft | 419 kts | 207° |
| 2026-05-01 10:05 | 42.48277 | -6.75355 | 23145 ft | 419 kts | 207° |
| 2026-05-01 10:06 | 42.45666 | -6.77126 | 23141 ft | 419 kts | 207° |
| 2026-05-01 10:06 | 42.43062 | -6.78891 | 23141 ft | 419 kts | 207° |
| 2026-05-01 10:06 | 42.40457 | -6.80656 | 23140 ft | 419 kts | 207° |
| 2026-05-01 10:06 | 42.37857 | -6.82419 | 23142 ft | 419 kts | 207° |
| 2026-05-01 10:07 | 42.35250 | -6.84184 | 23140 ft | 419 kts | 207° |
| 2026-05-01 10:07 | 42.32640 | -6.85952 | 23148 ft | 419 kts | 207° |
| 2026-05-01 10:07 | 42.30042 | -6.87709 | 23146 ft | 419 kts | 207° |
| 2026-05-01 10:07 | 42.27422 | -6.89481 | 23146 ft | 420 kts | 207° |
| 2026-05-01 10:08 | 42.22197 | -6.93012 | 23143 ft | 420 kts | 207° |
| 2026-05-01 10:08 | 42.19582 | -6.94774 | 23128 ft | 420 kts | 207° |
| 2026-05-01 10:08 | 42.16960 | -6.96520 | 23137 ft | 421 kts | 207° |
| 2026-05-01 10:09 | 42.14328 | -6.98244 | 23139 ft | 421 kts | 206° |
| 2026-05-01 10:09 | 42.11685 | -6.99957 | 23136 ft | 421 kts | 206° |
| 2026-05-01 10:09 | 42.09047 | -7.01661 | 23147 ft | 421 kts | 206° |
| 2026-05-01 10:09 | 42.06408 | -7.03367 | 23140 ft | 421 kts | 206° |
| 2026-05-01 10:10 | 42.03766 | -7.05077 | 23146 ft | 421 kts | 206° |
| 2026-05-01 10:10 | 42.01130 | -7.06789 | 23143 ft | 421 kts | 206° |
| 2026-05-01 10:10 | 41.95895 | -7.10185 | 23130 ft | 421 kts | 207° |
| 2026-05-01 10:11 | 41.93337 | -7.12173 | 23133 ft | 420 kts | 216° |
| 2026-05-01 10:11 | 41.91094 | -7.14603 | 23136 ft | 420 kts | 221° |
| 2026-05-01 10:11 | 41.88859 | -7.17204 | 23134 ft | 421 kts | 221° |
| 2026-05-01 10:11 | 41.86671 | -7.19732 | 23140 ft | 421 kts | 221° |
| 2026-05-01 10:12 | 41.85292 | -7.21287 | 23174 ft | 422 kts | 220° |
| 2026-05-01 10:12 | 41.83050 | -7.23820 | 23162 ft | 422 kts | 221° |
| 2026-05-01 10:12 | 41.78606 | -7.28950 | 23166 ft | 421 kts | 221° |
| 2026-05-01 10:13 | 41.76361 | -7.31559 | 23166 ft | 421 kts | 221° |
| 2026-05-01 10:13 | 41.74172 | -7.34094 | 23162 ft | 422 kts | 221° |
| 2026-05-01 10:13 | 41.71951 | -7.36656 | 23167 ft | 422 kts | 221° |
| 2026-05-01 10:14 | 41.67493 | -7.41767 | 23165 ft | 422 kts | 221° |
| 2026-05-01 10:14 | 41.65260 | -7.44314 | 23164 ft | 422 kts | 221° |
| 2026-05-01 10:14 | 41.63028 | -7.46858 | 23163 ft | 422 kts | 221° |
| 2026-05-01 10:14 | 41.60797 | -7.49398 | 23163 ft | 422 kts | 221° |
| 2026-05-01 10:15 | 41.58564 | -7.51944 | 23158 ft | 421 kts | 221° |
| 2026-05-01 10:15 | 41.56337 | -7.54487 | 23159 ft | 422 kts | 221° |
| 2026-05-01 10:15 | 41.54110 | -7.57026 | 23153 ft | 421 kts | 221° |
| 2026-05-01 10:15 | 41.51838 | -7.59614 | 22754 ft | 439 kts | 221° |
| 2026-05-01 10:16 | 41.49484 | -7.62293 | 22475 ft | 447 kts | 221° |
| 2026-05-01 10:16 | 41.47315 | -7.65248 | 21464 ft | 447 kts | 232° |
| 2026-05-01 10:16 | 41.43656 | -7.71772 | 20205 ft | 428 kts | 233° |
| 2026-05-01 10:17 | 41.41905 | -7.74934 | 19509 ft | 422 kts | 233° |
| 2026-05-01 10:17 | 41.38444 | -7.81157 | 18047 ft | 414 kts | 232° |
| 2026-05-01 10:17 | 41.36729 | -7.84216 | 17251 ft | 411 kts | 232° |
| 2026-05-01 10:18 | 41.33302 | -7.90290 | 15525 ft | 414 kts | 232° |
| 2026-05-01 10:18 | 41.31588 | -7.93326 | 14997 ft | 405 kts | 232° |
| 2026-05-01 10:18 | 41.29913 | -7.96293 | 14384 ft | 399 kts | 232° |
| 2026-05-01 10:19 | 41.28251 | -7.99232 | 13682 ft | 396 kts | 232° |
| 2026-05-01 10:19 | 41.26602 | -8.02144 | 12926 ft | 392 kts | 232° |
| 2026-05-01 10:19 | 41.24971 | -8.05026 | 12158 ft | 390 kts | 232° |
| 2026-05-01 10:20 | 41.21725 | -8.10748 | 11109 ft | 386 kts | 232° |
| 2026-05-01 10:20 | 41.20113 | -8.13587 | 11017 ft | 381 kts | 232° |
| 2026-05-01 10:20 | 41.18553 | -8.16332 | 10907 ft | 362 kts | 232° |
| 2026-05-01 10:20 | 41.17075 | -8.18933 | 10782 ft | 345 kts | 232° |
| 2026-05-01 10:21 | 41.15664 | -8.21414 | 10664 ft | 329 kts | 232° |
| 2026-05-01 10:21 | 41.13019 | -8.26060 | 10427 ft | 303 kts | 232° |
| 2026-05-01 10:21 | 41.11772 | -8.28248 | 10307 ft | 292 kts | 232° |
| 2026-05-01 10:22 | 41.09374 | -8.32451 | 9711 ft | 283 kts | 232° |
| 2026-05-01 10:22 | 41.07003 | -8.36585 | 8864 ft | 279 kts | 231° |
| 2026-05-01 10:23 | 41.05833 | -8.38627 | 8272 ft | 277 kts | 231° |
| 2026-05-01 10:23 | 41.03515 | -8.42683 | 6940 ft | 274 kts | 231° |
| 2026-05-01 10:23 | 41.02372 | -8.44681 | 6271 ft | 271 kts | 231° |
| 2026-05-01 10:24 | 41.01227 | -8.49310 | 4886 ft | 271 kts | 272° |
| 2026-05-01 10:24 | 41.02542 | -8.53956 | 3605 ft | 265 kts | 296° |
| 2026-05-01 10:25 | 41.04068 | -8.57916 | 3494 ft | 225 kts | 296° |
| 2026-05-01 10:25 | 41.05451 | -8.61462 | 3302 ft | 209 kts | 302° |
| 2026-05-01 10:26 | 41.06414 | -8.62829 | 3230 ft | 198 kts | 323° |
| 2026-05-01 10:26 | 41.07603 | -8.63606 | 3143 ft | 183 kts | 344° |
| 2026-05-01 10:26 | 41.09885 | -8.64208 | 2953 ft | 155 kts | 349° |
| 2026-05-01 10:27 | 41.11932 | -8.64747 | 2513 ft | 146 kts | 348° |
| 2026-05-01 10:27 | 41.13910 | -8.65266 | 2125 ft | 144 kts | 347° |
| 2026-05-01 10:28 | 41.14886 | -8.65523 | 1921 ft | 143 kts | 346° |
| 2026-05-01 10:28 | 41.16833 | -8.66038 | 1558 ft | 143 kts | 346° |
| 2026-05-01 10:28 | 41.17802 | -8.66320 | 1385 ft | 142 kts | 346° |
| 2026-05-01 10:29 | 41.19754 | -8.66822 | 1012 ft | 143 kts | 348° |
| 2026-05-01 10:29 | 41.20732 | -8.67035 | 827 ft | 142 kts | 348° |
| 2026-05-01 10:30 | 41.22670 | -8.67565 | 410 ft | 140 kts | 347° |
| 2026-05-01 10:30 | 41.24393 | -8.68018 | 210 ft | 84 kts | 348° |
| 2026-05-01 10:31 | 41.24969 | -8.68166 | 194 ft | 35 kts | 349° |
| 2026-05-01 10:31 | 41.25244 | -8.68120 | 180 ft | 14 kts | 18° |
| 2026-05-01 10:32 | 41.25279 | -8.68102 | 179 ft | 1 kts | 29° |
| 2026-05-01 10:32 | 41.25288 | -8.68035 | 181 ft | 14 kts | 119° |
| 2026-05-01 10:32 | 41.25057 | -8.67961 | 194 ft | 22 kts | 167° |
| 2026-05-01 10:33 | 41.24730 | -8.67819 | 210 ft | 25 kts | 167° |
| 2026-05-01 10:33 | 41.24419 | -8.67738 | 224 ft | 21 kts | 169° |
| 2026-05-01 10:34 | 41.24312 | -8.67706 | 230 ft | 0 kts | 150° |
| 2026-05-01 10:34 | 41.24275 | -8.67661 | 233 ft | 15 kts | 126° |
| 2026-05-01 10:35 | 41.24008 | -8.67417 | 242 ft | 18 kts | 183° |
| 2026-05-01 10:35 | 41.23886 | -8.67490 | 239 ft | 21 kts | 180° |
| 2026-05-01 10:35 | 41.23790 | -8.67467 | 239 ft | 22 kts | 169° |
| 2026-05-01 10:35 | 41.23629 | -8.67425 | 238 ft | 7 kts | 169° |
| 2026-05-01 10:36 | 41.23587 | -8.67411 | 238 ft | 0 kts | 157° |
| 2026-05-01 10:36 | 41.23585 | -8.67384 | 239 ft | 8 kts | 84° |
| 2026-05-01 10:36 | 41.23592 | -8.67309 | 243 ft | 7 kts | 85° |
| 2026-05-01 10:37 | 41.23593 | -8.67267 | 244 ft | 3 kts | 89° |
| 2026-05-01 10:37 | 41.23593 | -8.67226 | 245 ft | 0 kts | 90° |